sensor_id;sensor_type;location;lat;lon;timestamp;P1;durP1;ratioP1;P2;durP2;ratioP2
19225;SDS011;9747;48.536;12.522;2022-12-24T00:00:10;2.20;;;1.60;;
19225;SDS011;9747;48.536;12.522;2022-12-24T00:02:38;1.75;;;1.65;;
19225;SDS011;9747;48.536;12.522;2022-12-24T00:05:06;2.20;;;2.00;;
19225;SDS011;9747;48.536;12.522;2022-12-24T00:07:34;3.00;;;1.85;;
19225;SDS011;9747;48.536;12.522;2022-12-24T00:10:02;2.33;;;1.70;;
19225;SDS011;9747;48.536;12.522;2022-12-24T00:12:30;3.45;;;2.10;;
19225;SDS011;9747;48.536;12.522;2022-12-24T00:14:59;2.15;;;1.77;;
19225;SDS011;9747;48.536;12.522;2022-12-24T00:17:26;2.05;;;1.90;;
19225;SDS011;9747;48.536;12.522;2022-12-24T00:19:54;2.05;;;1.70;;
19225;SDS011;9747;48.536;12.522;2022-12-24T00:22:21;1.50;;;1.40;;
19225;SDS011;9747;48.536;12.522;2022-12-24T00:24:48;1.83;;;1.70;;
19225;SDS011;9747;48.536;12.522;2022-12-24T00:27:16;1.55;;;1.45;;
19225;SDS011;9747;48.536;12.522;2022-12-24T00:29:43;1.42;;;1.30;;
19225;SDS011;9747;48.536;12.522;2022-12-24T00:32:12;1.73;;;1.48;;
19225;SDS011;9747;48.536;12.522;2022-12-24T00:34:39;1.67;;;1.58;;
19225;SDS011;9747;48.536;12.522;2022-12-24T00:37:07;1.98;;;1.40;;
19225;SDS011;9747;48.536;12.522;2022-12-24T00:39:34;3.15;;;1.50;;
19225;SDS011;9747;48.536;12.522;2022-12-24T00:42:01;1.42;;;1.33;;
19225;SDS011;9747;48.536;12.522;2022-12-24T00:44:29;1.60;;;1.50;;
19225;SDS011;9747;48.536;12.522;2022-12-24T00:46:56;1.77;;;1.45;;
19225;SDS011;9747;48.536;12.522;2022-12-24T00:49:25;1.40;;;1.30;;
19225;SDS011;9747;48.536;12.522;2022-12-24T00:51:52;1.50;;;1.40;;
19225;SDS011;9747;48.536;12.522;2022-12-24T00:54:20;1.67;;;1.40;;
19225;SDS011;9747;48.536;12.522;2022-12-24T00:56:47;1.58;;;1.25;;
19225;SDS011;9747;48.536;12.522;2022-12-24T00:59:14;1.40;;;1.30;;
19225;SDS011;9747;48.536;12.522;2022-12-24T01:01:42;1.10;;;1.00;;
19225;SDS011;9747;48.536;12.522;2022-12-24T01:04:09;1.02;;;1.02;;
19225;SDS011;9747;48.536;12.522;2022-12-24T01:06:55;1.90;;;1.40;;
19225;SDS011;9747;48.536;12.522;2022-12-24T01:09:23;1.38;;;1.20;;
19225;SDS011;9747;48.536;12.522;2022-12-24T01:11:50;1.67;;;1.50;;
19225;SDS011;9747;48.536;12.522;2022-12-24T01:14:17;1.65;;;1.20;;
19225;SDS011;9747;48.536;12.522;2022-12-24T01:16:45;1.38;;;1.10;;
19225;SDS011;9747;48.536;12.522;2022-12-24T01:19:12;1.40;;;1.30;;
19225;SDS011;9747;48.536;12.522;2022-12-24T01:21:39;1.52;;;1.42;;
19225;SDS011;9747;48.536;12.522;2022-12-24T01:24:09;1.35;;;1.20;;
19225;SDS011;9747;48.536;12.522;2022-12-24T01:26:40;1.45;;;1.35;;
19225;SDS011;9747;48.536;12.522;2022-12-24T01:29:07;1.40;;;1.30;;
19225;SDS011;9747;48.536;12.522;2022-12-24T01:31:35;1.02;;;1.02;;
19225;SDS011;9747;48.536;12.522;2022-12-24T01:34:03;1.30;;;1.20;;
19225;SDS011;9747;48.536;12.522;2022-12-24T01:36:30;1.55;;;1.00;;
19225;SDS011;9747;48.536;12.522;2022-12-24T01:38:58;0.95;;;0.93;;
19225;SDS011;9747;48.536;12.522;2022-12-24T01:41:28;1.27;;;1.08;;
19225;SDS011;9747;48.536;12.522;2022-12-24T01:44:22;1.08;;;1.00;;
19225;SDS011;9747;48.536;12.522;2022-12-24T01:46:52;1.15;;;1.05;;
19225;SDS011;9747;48.536;12.522;2022-12-24T01:49:23;1.25;;;1.17;;
19225;SDS011;9747;48.536;12.522;2022-12-24T01:51:51;1.10;;;1.00;;
19225;SDS011;9747;48.536;12.522;2022-12-24T01:54:22;1.75;;;1.10;;
19225;SDS011;9747;48.536;12.522;2022-12-24T01:56:55;0.98;;;0.98;;
19225;SDS011;9747;48.536;12.522;2022-12-24T01:59:25;0.95;;;0.95;;
19225;SDS011;9747;48.536;12.522;2022-12-24T02:01:53;1.13;;;1.05;;
19225;SDS011;9747;48.536;12.522;2022-12-24T02:04:23;0.90;;;0.90;;
19225;SDS011;9747;48.536;12.522;2022-12-24T02:06:56;1.08;;;0.98;;
19225;SDS011;9747;48.536;12.522;2022-12-24T02:09:23;0.95;;;0.95;;
19225;SDS011;9747;48.536;12.522;2022-12-24T02:11:51;0.80;;;0.80;;
19225;SDS011;9747;48.536;12.522;2022-12-24T02:14:20;0.90;;;0.90;;
19225;SDS011;9747;48.536;12.522;2022-12-24T02:16:50;1.02;;;1.00;;
19225;SDS011;9747;48.536;12.522;2022-12-24T02:19:32;0.90;;;0.90;;
19225;SDS011;9747;48.536;12.522;2022-12-24T02:22:31;1.00;;;0.95;;
19225;SDS011;9747;48.536;12.522;2022-12-24T02:25:15;0.95;;;0.95;;
19225;SDS011;9747;48.536;12.522;2022-12-24T02:27:59;0.85;;;0.80;;
19225;SDS011;9747;48.536;12.522;2022-12-24T02:30:36;0.95;;;0.95;;
19225;SDS011;9747;48.536;12.522;2022-12-24T02:33:11;0.93;;;0.88;;
19225;SDS011;9747;48.536;12.522;2022-12-24T02:35:45;1.02;;;0.93;;
19225;SDS011;9747;48.536;12.522;2022-12-24T02:38:19;0.80;;;0.80;;
19225;SDS011;9747;48.536;12.522;2022-12-24T02:40:52;1.02;;;1.02;;
19225;SDS011;9747;48.536;12.522;2022-12-24T02:43:23;1.23;;;0.95;;
19225;SDS011;9747;48.536;12.522;2022-12-24T02:45:57;2.05;;;0.88;;
19225;SDS011;9747;48.536;12.522;2022-12-24T02:48:26;1.38;;;0.80;;
19225;SDS011;9747;48.536;12.522;2022-12-24T02:50:55;0.95;;;0.80;;
19225;SDS011;9747;48.536;12.522;2022-12-24T02:53:26;0.80;;;0.80;;
19225;SDS011;9747;48.536;12.522;2022-12-24T02:55:58;0.77;;;0.77;;
19225;SDS011;9747;48.536;12.522;2022-12-24T02:59:12;0.93;;;0.90;;
19225;SDS011;9747;48.536;12.522;2022-12-24T03:02:08;0.90;;;0.90;;
19225;SDS011;9747;48.536;12.522;2022-12-24T03:04:44;0.73;;;0.73;;
19225;SDS011;9747;48.536;12.522;2022-12-24T03:07:17;1.15;;;0.90;;
19225;SDS011;9747;48.536;12.522;2022-12-24T03:09:56;0.93;;;0.80;;
19225;SDS011;9747;48.536;12.522;2022-12-24T03:12:35;0.80;;;0.80;;
19225;SDS011;9747;48.536;12.522;2022-12-24T03:15:06;0.90;;;0.90;;
19225;SDS011;9747;48.536;12.522;2022-12-24T03:17:37;0.60;;;0.60;;
19225;SDS011;9747;48.536;12.522;2022-12-24T03:20:06;0.80;;;0.80;;
19225;SDS011;9747;48.536;12.522;2022-12-24T03:22:36;0.80;;;0.80;;
19225;SDS011;9747;48.536;12.522;2022-12-24T03:25:04;0.68;;;0.68;;
19225;SDS011;9747;48.536;12.522;2022-12-24T03:27:32;0.77;;;0.77;;
19225;SDS011;9747;48.536;12.522;2022-12-24T03:30:00;0.80;;;0.80;;
19225;SDS011;9747;48.536;12.522;2022-12-24T03:32:31;0.90;;;0.90;;
19225;SDS011;9747;48.536;12.522;2022-12-24T03:35:00;0.82;;;0.77;;
19225;SDS011;9747;48.536;12.522;2022-12-24T03:37:28;0.75;;;0.75;;
19225;SDS011;9747;48.536;12.522;2022-12-24T03:39:56;1.52;;;0.88;;
19225;SDS011;9747;48.536;12.522;2022-12-24T03:42:23;0.93;;;0.85;;
19225;SDS011;9747;48.536;12.522;2022-12-24T03:44:50;0.73;;;0.73;;
19225;SDS011;9747;48.536;12.522;2022-12-24T03:47:18;1.10;;;0.90;;
19225;SDS011;9747;48.536;12.522;2022-12-24T03:49:45;0.63;;;0.63;;
19225;SDS011;9747;48.536;12.522;2022-12-24T03:52:14;1.27;;;0.75;;
19225;SDS011;9747;48.536;12.522;2022-12-24T03:54:41;1.42;;;0.80;;
19225;SDS011;9747;48.536;12.522;2022-12-24T03:57:09;1.60;;;1.00;;
19225;SDS011;9747;48.536;12.522;2022-12-24T03:59:36;0.75;;;0.75;;
19225;SDS011;9747;48.536;12.522;2022-12-24T04:02:03;0.70;;;0.70;;
19225;SDS011;9747;48.536;12.522;2022-12-24T04:04:31;0.93;;;0.85;;
19225;SDS011;9747;48.536;12.522;2022-12-24T04:07:00;0.68;;;0.68;;
19225;SDS011;9747;48.536;12.522;2022-12-24T04:09:29;0.80;;;0.80;;
19225;SDS011;9747;48.536;12.522;2022-12-24T04:11:57;0.68;;;0.60;;
19225;SDS011;9747;48.536;12.522;2022-12-24T04:14:24;0.70;;;0.70;;
19225;SDS011;9747;48.536;12.522;2022-12-24T04:16:52;0.85;;;0.80;;
19225;SDS011;9747;48.536;12.522;2022-12-24T04:19:19;0.70;;;0.70;;
19225;SDS011;9747;48.536;12.522;2022-12-24T04:21:46;0.50;;;0.50;;
19225;SDS011;9747;48.536;12.522;2022-12-24T04:24:14;0.82;;;0.82;;
19225;SDS011;9747;48.536;12.522;2022-12-24T04:26:42;0.60;;;0.60;;
19225;SDS011;9747;48.536;12.522;2022-12-24T04:29:10;0.65;;;0.65;;
19225;SDS011;9747;48.536;12.522;2022-12-24T04:31:37;0.80;;;0.80;;
19225;SDS011;9747;48.536;12.522;2022-12-24T04:34:05;0.70;;;0.70;;
19225;SDS011;9747;48.536;12.522;2022-12-24T04:36:32;1.10;;;0.50;;
19225;SDS011;9747;48.536;12.522;2022-12-24T04:39:00;0.60;;;0.60;;
19225;SDS011;9747;48.536;12.522;2022-12-24T04:41:27;0.88;;;0.88;;
19225;SDS011;9747;48.536;12.522;2022-12-24T04:43:56;1.55;;;1.00;;
19225;SDS011;9747;48.536;12.522;2022-12-24T04:46:24;0.88;;;0.70;;
19225;SDS011;9747;48.536;12.522;2022-12-24T04:48:54;1.30;;;0.80;;
19225;SDS011;9747;48.536;12.522;2022-12-24T04:51:22;0.90;;;0.90;;
19225;SDS011;9747;48.536;12.522;2022-12-24T04:53:51;0.90;;;0.90;;
19225;SDS011;9747;48.536;12.522;2022-12-24T04:56:19;0.63;;;0.63;;
19225;SDS011;9747;48.536;12.522;2022-12-24T04:58:48;1.00;;;1.00;;
19225;SDS011;9747;48.536;12.522;2022-12-24T05:01:18;0.80;;;0.80;;
19225;SDS011;9747;48.536;12.522;2022-12-24T05:03:48;0.88;;;0.85;;
19225;SDS011;9747;48.536;12.522;2022-12-24T05:06:17;0.82;;;0.82;;
19225;SDS011;9747;48.536;12.522;2022-12-24T05:08:45;0.90;;;0.90;;
19225;SDS011;9747;48.536;12.522;2022-12-24T05:11:13;1.48;;;1.00;;
19225;SDS011;9747;48.536;12.522;2022-12-24T05:13:41;1.10;;;1.00;;
19225;SDS011;9747;48.536;12.522;2022-12-24T05:16:09;1.75;;;1.10;;
19225;SDS011;9747;48.536;12.522;2022-12-24T05:18:39;1.10;;;1.00;;
19225;SDS011;9747;48.536;12.522;2022-12-24T05:21:07;1.20;;;1.10;;
19225;SDS011;9747;48.536;12.522;2022-12-24T05:23:35;0.82;;;0.82;;
19225;SDS011;9747;48.536;12.522;2022-12-24T05:26:22;1.00;;;1.00;;
19225;SDS011;9747;48.536;12.522;2022-12-24T05:28:55;0.90;;;0.90;;
19225;SDS011;9747;48.536;12.522;2022-12-24T05:31:24;0.90;;;0.90;;
19225;SDS011;9747;48.536;12.522;2022-12-24T05:33:54;0.95;;;0.95;;
19225;SDS011;9747;48.536;12.522;2022-12-24T05:36:21;0.93;;;0.90;;
19225;SDS011;9747;48.536;12.522;2022-12-24T05:38:49;1.17;;;1.05;;
19225;SDS011;9747;48.536;12.522;2022-12-24T05:41:17;1.00;;;1.00;;
19225;SDS011;9747;48.536;12.522;2022-12-24T05:43:45;1.38;;;1.00;;
19225;SDS011;9747;48.536;12.522;2022-12-24T05:46:13;0.90;;;0.90;;
19225;SDS011;9747;48.536;12.522;2022-12-24T05:48:42;1.10;;;1.00;;
19225;SDS011;9747;48.536;12.522;2022-12-24T05:51:12;1.23;;;1.13;;
19225;SDS011;9747;48.536;12.522;2022-12-24T05:53:42;0.90;;;0.90;;
19225;SDS011;9747;48.536;12.522;2022-12-24T05:56:11;1.20;;;1.10;;
19225;SDS011;9747;48.536;12.522;2022-12-24T05:58:40;1.10;;;0.90;;
19225;SDS011;9747;48.536;12.522;2022-12-24T06:01:08;1.00;;;0.90;;
19225;SDS011;9747;48.536;12.522;2022-12-24T06:03:36;0.93;;;0.93;;
19225;SDS011;9747;48.536;12.522;2022-12-24T06:06:04;1.63;;;1.00;;
19225;SDS011;9747;48.536;12.522;2022-12-24T06:08:35;1.58;;;1.05;;
19225;SDS011;9747;48.536;12.522;2022-12-24T06:11:05;0.77;;;0.77;;
19225;SDS011;9747;48.536;12.522;2022-12-24T06:13:34;1.50;;;1.08;;
19225;SDS011;9747;48.536;12.522;2022-12-24T06:16:03;0.82;;;0.77;;
19225;SDS011;9747;48.536;12.522;2022-12-24T06:18:32;1.02;;;0.90;;
19225;SDS011;9747;48.536;12.522;2022-12-24T06:21:01;0.70;;;0.70;;
19225;SDS011;9747;48.536;12.522;2022-12-24T06:23:31;1.17;;;1.08;;
19225;SDS011;9747;48.536;12.522;2022-12-24T06:26:01;1.08;;;1.02;;
19225;SDS011;9747;48.536;12.522;2022-12-24T06:28:31;0.82;;;0.82;;
19225;SDS011;9747;48.536;12.522;2022-12-24T06:31:00;0.95;;;0.90;;
19225;SDS011;9747;48.536;12.522;2022-12-24T06:33:29;0.70;;;0.70;;
19225;SDS011;9747;48.536;12.522;2022-12-24T06:35:57;1.27;;;0.90;;
19225;SDS011;9747;48.536;12.522;2022-12-24T06:38:25;0.70;;;0.70;;
19225;SDS011;9747;48.536;12.522;2022-12-24T06:40:53;0.82;;;0.82;;
19225;SDS011;9747;48.536;12.522;2022-12-24T06:43:21;0.80;;;0.80;;
19225;SDS011;9747;48.536;12.522;2022-12-24T06:45:48;0.90;;;0.90;;
19225;SDS011;9747;48.536;12.522;2022-12-24T06:48:16;0.80;;;0.70;;
19225;SDS011;9747;48.536;12.522;2022-12-24T06:50:43;1.60;;;0.80;;
19225;SDS011;9747;48.536;12.522;2022-12-24T06:53:10;0.82;;;0.82;;
19225;SDS011;9747;48.536;12.522;2022-12-24T06:55:38;0.80;;;0.80;;
19225;SDS011;9747;48.536;12.522;2022-12-24T06:58:07;0.95;;;0.82;;
19225;SDS011;9747;48.536;12.522;2022-12-24T07:00:34;1.05;;;1.00;;
19225;SDS011;9747;48.536;12.522;2022-12-24T07:03:02;1.25;;;1.00;;
19225;SDS011;9747;48.536;12.522;2022-12-24T07:05:30;1.10;;;1.00;;
19225;SDS011;9747;48.536;12.522;2022-12-24T07:07:57;1.65;;;1.08;;
19225;SDS011;9747;48.536;12.522;2022-12-24T07:10:25;1.33;;;1.00;;
19225;SDS011;9747;48.536;12.522;2022-12-24T07:12:52;1.20;;;1.10;;
19225;SDS011;9747;48.536;12.522;2022-12-24T07:15:21;0.98;;;0.90;;
19225;SDS011;9747;48.536;12.522;2022-12-24T07:17:48;0.98;;;0.90;;
19225;SDS011;9747;48.536;12.522;2022-12-24T07:20:15;0.93;;;0.93;;
19225;SDS011;9747;48.536;12.522;2022-12-24T07:22:43;1.15;;;1.15;;
19225;SDS011;9747;48.536;12.522;2022-12-24T07:25:10;1.33;;;1.10;;
19225;SDS011;9747;48.536;12.522;2022-12-24T07:27:38;0.90;;;0.90;;
19225;SDS011;9747;48.536;12.522;2022-12-24T07:30:06;1.73;;;1.10;;
19225;SDS011;9747;48.536;12.522;2022-12-24T07:32:37;0.93;;;0.90;;
19225;SDS011;9747;48.536;12.522;2022-12-24T07:35:04;1.00;;;1.00;;
19225;SDS011;9747;48.536;12.522;2022-12-24T07:37:32;1.05;;;1.00;;
19225;SDS011;9747;48.536;12.522;2022-12-24T07:40:00;1.48;;;1.00;;
19225;SDS011;9747;48.536;12.522;2022-12-24T07:42:30;1.08;;;1.08;;
19225;SDS011;9747;48.536;12.522;2022-12-24T07:44:57;0.90;;;0.85;;
19225;SDS011;9747;48.536;12.522;2022-12-24T07:47:25;1.20;;;1.10;;
19225;SDS011;9747;48.536;12.522;2022-12-24T07:49:54;1.08;;;1.00;;
19225;SDS011;9747;48.536;12.522;2022-12-24T07:52:22;1.15;;;1.10;;
19225;SDS011;9747;48.536;12.522;2022-12-24T07:54:49;0.95;;;0.95;;
19225;SDS011;9747;48.536;12.522;2022-12-24T07:57:16;3.08;;;1.00;;
19225;SDS011;9747;48.536;12.522;2022-12-24T07:59:44;0.90;;;0.90;;
19225;SDS011;9747;48.536;12.522;2022-12-24T08:02:11;1.10;;;1.00;;
19225;SDS011;9747;48.536;12.522;2022-12-24T08:04:39;1.90;;;1.00;;
19225;SDS011;9747;48.536;12.522;2022-12-24T08:07:08;2.30;;;1.00;;
19225;SDS011;9747;48.536;12.522;2022-12-24T08:09:36;1.13;;;0.95;;
19225;SDS011;9747;48.536;12.522;2022-12-24T08:12:04;1.02;;;0.90;;
19225;SDS011;9747;48.536;12.522;2022-12-24T08:14:32;1.70;;;1.08;;
19225;SDS011;9747;48.536;12.522;2022-12-24T08:16:59;1.15;;;1.08;;
19225;SDS011;9747;48.536;12.522;2022-12-24T08:19:27;3.35;;;1.20;;
19225;SDS011;9747;48.536;12.522;2022-12-24T08:21:54;1.75;;;1.05;;
19225;SDS011;9747;48.536;12.522;2022-12-24T08:24:23;1.45;;;1.02;;
19225;SDS011;9747;48.536;12.522;2022-12-24T08:26:50;1.30;;;1.10;;
19225;SDS011;9747;48.536;12.522;2022-12-24T08:29:18;1.00;;;1.00;;
19225;SDS011;9747;48.536;12.522;2022-12-24T08:31:45;2.13;;;1.08;;
19225;SDS011;9747;48.536;12.522;2022-12-24T08:34:13;2.33;;;1.20;;
19225;SDS011;9747;48.536;12.522;2022-12-24T08:36:40;1.25;;;1.00;;
19225;SDS011;9747;48.536;12.522;2022-12-24T08:39:08;4.60;;;2.78;;
19225;SDS011;9747;48.536;12.522;2022-12-24T08:41:37;3.33;;;2.83;;
19225;SDS011;9747;48.536;12.522;2022-12-24T08:44:04;2.95;;;2.03;;
19225;SDS011;9747;48.536;12.522;2022-12-24T08:46:32;2.25;;;1.60;;
19225;SDS011;9747;48.536;12.522;2022-12-24T08:48:59;5.90;;;1.80;;
19225;SDS011;9747;48.536;12.522;2022-12-24T08:51:26;2.05;;;1.50;;
19225;SDS011;9747;48.536;12.522;2022-12-24T08:53:54;1.75;;;1.40;;
19225;SDS011;9747;48.536;12.522;2022-12-24T08:56:21;2.03;;;1.60;;
19225;SDS011;9747;48.536;12.522;2022-12-24T08:58:50;4.10;;;1.75;;
19225;SDS011;9747;48.536;12.522;2022-12-24T09:01:18;1.65;;;1.48;;
19225;SDS011;9747;48.536;12.522;2022-12-24T09:03:46;1.75;;;1.55;;
19225;SDS011;9747;48.536;12.522;2022-12-24T09:06:14;4.53;;;1.70;;
19225;SDS011;9747;48.536;12.522;2022-12-24T09:08:41;3.20;;;1.55;;
19225;SDS011;9747;48.536;12.522;2022-12-24T09:11:10;1.55;;;1.30;;
19225;SDS011;9747;48.536;12.522;2022-12-24T09:13:40;1.85;;;1.70;;
19225;SDS011;9747;48.536;12.522;2022-12-24T09:16:10;1.95;;;1.40;;
19225;SDS011;9747;48.536;12.522;2022-12-24T09:18:37;1.85;;;1.40;;
19225;SDS011;9747;48.536;12.522;2022-12-24T09:21:06;2.17;;;1.30;;
19225;SDS011;9747;48.536;12.522;2022-12-24T09:23:35;1.45;;;1.35;;
19225;SDS011;9747;48.536;12.522;2022-12-24T09:26:05;3.17;;;1.42;;
19225;SDS011;9747;48.536;12.522;2022-12-24T09:28:33;1.95;;;1.50;;
19225;SDS011;9747;48.536;12.522;2022-12-24T09:31:01;4.38;;;1.92;;
19225;SDS011;9747;48.536;12.522;2022-12-24T09:33:32;2.70;;;1.95;;
19225;SDS011;9747;48.536;12.522;2022-12-24T09:36:02;7.85;;;1.80;;
19225;SDS011;9747;48.536;12.522;2022-12-24T09:38:30;2.60;;;1.60;;
19225;SDS011;9747;48.536;12.522;2022-12-24T09:40:59;3.70;;;1.90;;
19225;SDS011;9747;48.536;12.522;2022-12-24T09:43:28;2.72;;;1.90;;
19225;SDS011;9747;48.536;12.522;2022-12-24T09:46:01;6.70;;;2.50;;
19225;SDS011;9747;48.536;12.522;2022-12-24T09:48:37;2.35;;;2.15;;
19225;SDS011;9747;48.536;12.522;2022-12-24T09:51:07;5.60;;;1.90;;
19225;SDS011;9747;48.536;12.522;2022-12-24T09:53:36;4.30;;;1.90;;
19225;SDS011;9747;48.536;12.522;2022-12-24T09:56:10;5.32;;;2.22;;
19225;SDS011;9747;48.536;12.522;2022-12-24T09:58:41;2.85;;;1.98;;
19225;SDS011;9747;48.536;12.522;2022-12-24T10:01:11;3.10;;;1.92;;
19225;SDS011;9747;48.536;12.522;2022-12-24T10:03:41;3.20;;;1.85;;
19225;SDS011;9747;48.536;12.522;2022-12-24T10:06:10;5.50;;;2.00;;
19225;SDS011;9747;48.536;12.522;2022-12-24T10:08:44;7.70;;;1.98;;
19225;SDS011;9747;48.536;12.522;2022-12-24T10:11:25;4.45;;;1.90;;
19225;SDS011;9747;48.536;12.522;2022-12-24T10:14:00;6.25;;;2.25;;
19225;SDS011;9747;48.536;12.522;2022-12-24T10:16:37;3.80;;;2.20;;
19225;SDS011;9747;48.536;12.522;2022-12-24T10:19:13;6.53;;;2.30;;
19225;SDS011;9747;48.536;12.522;2022-12-24T10:21:47;7.15;;;2.50;;
19225;SDS011;9747;48.536;12.522;2022-12-24T10:24:25;5.75;;;2.33;;
19225;SDS011;9747;48.536;12.522;2022-12-24T10:26:56;3.38;;;2.13;;
19225;SDS011;9747;48.536;12.522;2022-12-24T10:29:28;6.70;;;2.60;;
19225;SDS011;9747;48.536;12.522;2022-12-24T10:31:58;2.63;;;2.05;;
19225;SDS011;9747;48.536;12.522;2022-12-24T10:34:38;3.72;;;2.50;;
19225;SDS011;9747;48.536;12.522;2022-12-24T10:37:08;4.68;;;2.90;;
19225;SDS011;9747;48.536;12.522;2022-12-24T10:39:38;4.35;;;2.38;;
19225;SDS011;9747;48.536;12.522;2022-12-24T10:42:05;2.70;;;1.95;;
19225;SDS011;9747;48.536;12.522;2022-12-24T10:44:33;5.03;;;2.60;;
19225;SDS011;9747;48.536;12.522;2022-12-24T10:47:00;3.65;;;2.53;;
19225;SDS011;9747;48.536;12.522;2022-12-24T10:49:30;4.53;;;2.70;;
19225;SDS011;9747;48.536;12.522;2022-12-24T10:52:04;6.07;;;2.55;;
19225;SDS011;9747;48.536;12.522;2022-12-24T10:54:35;3.83;;;2.45;;
19225;SDS011;9747;48.536;12.522;2022-12-24T10:57:04;3.28;;;2.40;;
19225;SDS011;9747;48.536;12.522;2022-12-24T10:59:49;2.92;;;2.38;;
19225;SDS011;9747;48.536;12.522;2022-12-24T11:02:25;4.38;;;2.72;;
19225;SDS011;9747;48.536;12.522;2022-12-24T11:04:56;3.38;;;2.47;;
19225;SDS011;9747;48.536;12.522;2022-12-24T11:07:25;4.72;;;2.92;;
19225;SDS011;9747;48.536;12.522;2022-12-24T11:09:54;3.65;;;2.47;;
19225;SDS011;9747;48.536;12.522;2022-12-24T11:12:24;3.53;;;2.42;;
19225;SDS011;9747;48.536;12.522;2022-12-24T11:15:00;2.85;;;2.55;;
19225;SDS011;9747;48.536;12.522;2022-12-24T11:17:29;3.58;;;3.05;;
19225;SDS011;9747;48.536;12.522;2022-12-24T11:19:58;6.45;;;3.22;;
19225;SDS011;9747;48.536;12.522;2022-12-24T11:22:27;5.20;;;2.80;;
19225;SDS011;9747;48.536;12.522;2022-12-24T11:24:57;3.22;;;2.90;;
19225;SDS011;9747;48.536;12.522;2022-12-24T11:27:31;3.88;;;2.72;;
19225;SDS011;9747;48.536;12.522;2022-12-24T11:30:19;3.45;;;2.90;;
19225;SDS011;9747;48.536;12.522;2022-12-24T11:35:48;4.47;;;3.20;;
19225;SDS011;9747;48.536;12.522;2022-12-24T11:38:36;4.43;;;2.70;;
19225;SDS011;9747;48.536;12.522;2022-12-24T11:41:05;3.90;;;3.00;;
19225;SDS011;9747;48.536;12.522;2022-12-24T11:43:38;4.55;;;2.70;;
19225;SDS011;9747;48.536;12.522;2022-12-24T11:46:16;4.22;;;2.72;;
19225;SDS011;9747;48.536;12.522;2022-12-24T11:48:47;6.03;;;3.17;;
19225;SDS011;9747;48.536;12.522;2022-12-24T11:51:21;4.40;;;2.70;;
19225;SDS011;9747;48.536;12.522;2022-12-24T11:53:52;3.30;;;2.95;;
19225;SDS011;9747;48.536;12.522;2022-12-24T11:56:29;5.95;;;3.50;;
19225;SDS011;9747;48.536;12.522;2022-12-24T11:59:04;4.30;;;3.55;;
19225;SDS011;9747;48.536;12.522;2022-12-24T12:01:40;4.55;;;3.00;;
19225;SDS011;9747;48.536;12.522;2022-12-24T12:04:14;5.57;;;3.08;;
19225;SDS011;9747;48.536;12.522;2022-12-24T12:06:45;4.28;;;2.92;;
19225;SDS011;9747;48.536;12.522;2022-12-24T12:09:16;4.20;;;3.78;;
19225;SDS011;9747;48.536;12.522;2022-12-24T12:11:47;3.95;;;3.60;;
19225;SDS011;9747;48.536;12.522;2022-12-24T12:14:21;7.57;;;3.50;;
19225;SDS011;9747;48.536;12.522;2022-12-24T12:16:55;3.75;;;3.45;;
19225;SDS011;9747;48.536;12.522;2022-12-24T12:19:28;3.45;;;3.10;;
19225;SDS011;9747;48.536;12.522;2022-12-24T12:22:03;3.90;;;3.50;;
19225;SDS011;9747;48.536;12.522;2022-12-24T12:24:33;4.07;;;3.22;;
19225;SDS011;9747;48.536;12.522;2022-12-24T12:27:04;3.83;;;3.53;;
19225;SDS011;9747;48.536;12.522;2022-12-24T12:29:41;5.25;;;3.08;;
19225;SDS011;9747;48.536;12.522;2022-12-24T12:32:15;5.43;;;3.80;;
19225;SDS011;9747;48.536;12.522;2022-12-24T12:34:54;5.63;;;3.83;;
19225;SDS011;9747;48.536;12.522;2022-12-24T12:37:31;7.45;;;4.20;;
19225;SDS011;9747;48.536;12.522;2022-12-24T12:40:02;8.63;;;3.92;;
19225;SDS011;9747;48.536;12.522;2022-12-24T12:42:32;5.45;;;3.53;;
19225;SDS011;9747;48.536;12.522;2022-12-24T12:45:06;5.30;;;3.40;;
19225;SDS011;9747;48.536;12.522;2022-12-24T12:48:02;4.97;;;3.47;;
19225;SDS011;9747;48.536;12.522;2022-12-24T12:50:42;6.18;;;3.50;;
19225;SDS011;9747;48.536;12.522;2022-12-24T12:53:22;5.10;;;3.25;;
19225;SDS011;9747;48.536;12.522;2022-12-24T12:56:10;4.60;;;3.42;;
19225;SDS011;9747;48.536;12.522;2022-12-24T12:58:48;6.78;;;3.40;;
19225;SDS011;9747;48.536;12.522;2022-12-24T13:01:21;4.38;;;3.17;;
19225;SDS011;9747;48.536;12.522;2022-12-24T13:04:04;5.65;;;3.47;;
19225;SDS011;9747;48.536;12.522;2022-12-24T13:07:10;7.70;;;3.55;;
19225;SDS011;9747;48.536;12.522;2022-12-24T13:13:25;7.15;;;3.58;;
19225;SDS011;9747;48.536;12.522;2022-12-24T13:16:37;4.65;;;3.20;;
19225;SDS011;9747;48.536;12.522;2022-12-24T13:19:18;6.80;;;3.78;;
19225;SDS011;9747;48.536;12.522;2022-12-24T13:21:55;5.80;;;3.15;;
19225;SDS011;9747;48.536;12.522;2022-12-24T13:24:23;4.70;;;3.35;;
19225;SDS011;9747;48.536;12.522;2022-12-24T13:27:01;5.03;;;2.97;;
19225;SDS011;9747;48.536;12.522;2022-12-24T13:29:41;3.92;;;2.92;;
19225;SDS011;9747;48.536;12.522;2022-12-24T13:35:25;4.57;;;2.95;;
19225;SDS011;9747;48.536;12.522;2022-12-24T13:38:40;5.43;;;3.05;;
19225;SDS011;9747;48.536;12.522;2022-12-24T13:44:26;5.90;;;3.10;;
19225;SDS011;9747;48.536;12.522;2022-12-24T13:47:01;4.07;;;2.83;;
19225;SDS011;9747;48.536;12.522;2022-12-24T13:49:45;5.45;;;2.97;;
19225;SDS011;9747;48.536;12.522;2022-12-24T13:52:21;4.70;;;2.95;;
19225;SDS011;9747;48.536;12.522;2022-12-24T13:55:03;2.80;;;2.22;;
19225;SDS011;9747;48.536;12.522;2022-12-24T13:57:39;4.35;;;2.88;;
19225;SDS011;9747;48.536;12.522;2022-12-24T14:03:18;4.85;;;2.80;;
19225;SDS011;9747;48.536;12.522;2022-12-24T14:05:54;4.45;;;2.55;;
19225;SDS011;9747;48.536;12.522;2022-12-24T14:08:26;4.28;;;2.50;;
19225;SDS011;9747;48.536;12.522;2022-12-24T14:11:01;5.70;;;2.65;;
19225;SDS011;9747;48.536;12.522;2022-12-24T14:16:42;4.38;;;2.63;;
19225;SDS011;9747;48.536;12.522;2022-12-24T14:19:17;5.97;;;2.60;;
19225;SDS011;9747;48.536;12.522;2022-12-24T14:21:51;8.10;;;2.45;;
19225;SDS011;9747;48.536;12.522;2022-12-24T14:24:24;5.55;;;2.42;;
19225;SDS011;9747;48.536;12.522;2022-12-24T14:26:53;4.40;;;2.47;;
19225;SDS011;9747;48.536;12.522;2022-12-24T14:29:25;5.78;;;2.63;;
19225;SDS011;9747;48.536;12.522;2022-12-24T14:31:56;5.50;;;2.65;;
19225;SDS011;9747;48.536;12.522;2022-12-24T14:34:28;3.47;;;2.22;;
19225;SDS011;9747;48.536;12.522;2022-12-24T14:36:56;3.95;;;2.35;;
19225;SDS011;9747;48.536;12.522;2022-12-24T14:39:27;5.40;;;2.40;;
19225;SDS011;9747;48.536;12.522;2022-12-24T14:42:00;4.47;;;2.38;;
19225;SDS011;9747;48.536;12.522;2022-12-24T14:44:40;3.47;;;2.40;;
19225;SDS011;9747;48.536;12.522;2022-12-24T14:47:19;3.92;;;2.15;;
19225;SDS011;9747;48.536;12.522;2022-12-24T14:49:59;3.65;;;2.40;;
19225;SDS011;9747;48.536;12.522;2022-12-24T14:52:47;4.28;;;2.30;;
19225;SDS011;9747;48.536;12.522;2022-12-24T14:55:29;5.65;;;2.47;;
19225;SDS011;9747;48.536;12.522;2022-12-24T14:58:20;5.70;;;2.70;;
19225;SDS011;9747;48.536;12.522;2022-12-24T15:00:51;4.07;;;2.28;;
19225;SDS011;9747;48.536;12.522;2022-12-24T15:03:23;4.30;;;2.40;;
19225;SDS011;9747;48.536;12.522;2022-12-24T15:05:54;5.03;;;2.35;;
19225;SDS011;9747;48.536;12.522;2022-12-24T15:08:27;4.80;;;2.03;;
19225;SDS011;9747;48.536;12.522;2022-12-24T15:10:59;6.60;;;3.78;;
19225;SDS011;9747;48.536;12.522;2022-12-24T15:13:30;5.32;;;3.90;;
19225;SDS011;9747;48.536;12.522;2022-12-24T15:16:02;10.07;;;7.53;;
19225;SDS011;9747;48.536;12.522;2022-12-24T15:18:33;8.70;;;7.13;;
19225;SDS011;9747;48.536;12.522;2022-12-24T15:21:04;7.43;;;6.70;;
19225;SDS011;9747;48.536;12.522;2022-12-24T15:23:34;6.60;;;5.72;;
19225;SDS011;9747;48.536;12.522;2022-12-24T15:26:06;7.10;;;5.63;;
19225;SDS011;9747;48.536;12.522;2022-12-24T15:28:44;7.40;;;4.60;;
19225;SDS011;9747;48.536;12.522;2022-12-24T15:31:12;6.07;;;4.80;;